createdAt,value
2022-10-01T00:15:02.000Z,12.8
2022-10-01T00:24:59.478Z,12.7
2022-10-01T00:35:00.307Z,12.7
2022-10-01T00:55:01.074Z,12.6
2022-10-01T01:05:01.547Z,12.2
2022-10-01T01:15:02.381Z,11.6
2022-10-01T01:25:03.122Z,11.3
2022-10-01T01:35:03.609Z,11.1
2022-10-01T01:45:03.898Z,11
2022-10-01T01:55:04.582Z,10.8
2022-10-01T02:05:04.999Z,10.8
2022-10-01T02:15:05.869Z,10.6
2022-10-01T02:25:06.388Z,10.6
2022-10-01T02:35:07.044Z,10.6
2022-10-01T02:45:07.166Z,10.5
2022-10-01T02:55:07.904Z,10.4
2022-10-01T03:05:08.819Z,10.5
2022-10-01T03:15:09.299Z,10.4
2022-10-01T03:25:09.751Z,10.4
2022-10-01T03:35:09.854Z,10.4
2022-10-01T03:45:10.413Z,10.4
2022-10-01T03:55:11.410Z,10.3
2022-10-01T04:05:12.140Z,10.2
2022-10-01T04:15:12.213Z,10.3
2022-10-01T04:25:12.968Z,10.3
2022-10-01T04:45:14.396Z,10.6
2022-10-01T04:55:14.652Z,10.6
2022-10-01T05:05:15.160Z,10.7
2022-10-01T05:15:16.158Z,10.9
2022-10-01T05:25:16.733Z,11
2022-10-01T05:35:17.422Z,11
2022-10-01T05:45:17.554Z,11.1
2022-10-01T05:55:18.370Z,11
2022-10-01T06:05:19.351Z,11
2022-10-01T06:15:20.240Z,11
2022-10-01T06:25:20.311Z,11.1
2022-10-01T06:35:20.769Z,11.1
2022-10-01T06:45:21.570Z,11.2
2022-10-01T06:55:22.392Z,11.2
2022-10-01T07:05:22.739Z,11.2
2022-10-01T07:15:23.717Z,11.3
2022-10-01T07:25:24.348Z,11.4
2022-10-01T07:35:25.307Z,11.4
2022-10-01T07:45:25.509Z,11.5
2022-10-01T07:55:25.784Z,11.6
2022-10-01T08:05:26.492Z,11.7
2022-10-01T08:15:26.672Z,11.9
2022-10-01T08:25:27.455Z,12.1
2022-10-01T08:35:28.216Z,12.5
2022-10-01T08:45:28.875Z,12.8
2022-10-01T09:05:30.465Z,13.2
2022-10-01T09:15:30.849Z,13.5
2022-10-01T09:25:30.932Z,13.7
2022-10-01T09:35:31.237Z,13.9
2022-10-01T09:45:31.557Z,13.8
2022-10-01T09:55:31.929Z,13.9
2022-10-01T10:05:32.619Z,14.1
2022-10-01T10:15:32.753Z,13.9
2022-10-01T10:25:32.791Z,13.9
2022-10-01T10:45:33.281Z,14.2
2022-10-01T10:55:33.447Z,14.6
2022-10-01T11:05:34.518Z,14.7
2022-10-01T11:15:35.176Z,15.3
2022-10-01T11:25:35.170Z,15.5
2022-10-01T11:35:35.545Z,15.7
2022-10-01T11:45:36.453Z,15.4
2022-10-01T12:05:37.159Z,16
2022-10-01T12:15:38.100Z,16.1
2022-10-01T12:45:39.068Z,15.3
2022-10-01T12:55:39.414Z,15.2
2022-10-01T13:05:40.399Z,14.6
2022-10-01T13:15:41.083Z,14
2022-10-01T13:25:41.948Z,13.9
2022-10-01T13:35:41.987Z,13.9
2022-10-01T13:45:42.633Z,13.5
2022-10-01T13:55:43.358Z,13.7
2022-10-01T14:05:43.947Z,14.6
2022-10-01T14:15:44.079Z,15.3
2022-10-01T14:25:44.735Z,15.8
2022-10-01T14:35:45.592Z,16
2022-10-01T14:36:07.521Z,16
2022-10-01T14:45:51.205Z,15.6
2022-10-01T15:15:53.145Z,14
2022-10-01T15:25:53.478Z,14.7
2022-10-01T15:35:54.013Z,15
2022-10-01T15:45:54.209Z,15.4
2022-10-01T15:55:54.593Z,15.4
2022-10-01T16:05:54.758Z,15.5
2022-10-01T16:15:55.681Z,15.4
2022-10-01T16:25:55.963Z,15
2022-10-01T16:35:56.617Z,14.8
2022-10-01T16:45:57.164Z,14.8
2022-10-01T16:55:57.467Z,14.8
2022-10-01T17:05:58.148Z,14.6
2022-10-01T17:15:59.060Z,14.4
2022-10-01T17:25:59.636Z,14.1
2022-10-01T17:36:00.440Z,13.9
2022-10-01T17:46:00.584Z,13.7
2022-10-01T17:56:00.859Z,13.7
2022-10-01T18:06:01.756Z,13.7
2022-10-01T18:16:02.241Z,13.7
2022-10-01T18:26:02.422Z,13.6
2022-10-01T18:36:02.951Z,13.5
2022-10-01T18:46:03.308Z,13.4
2022-10-01T18:56:04.035Z,13
2022-10-01T19:06:04.939Z,12.8
2022-10-01T19:16:05.594Z,12.7
2022-10-01T19:26:05.907Z,12.6
2022-10-01T19:36:06.597Z,12.9
2022-10-01T19:46:06.662Z,13.1
2022-10-01T19:56:07.220Z,13
2022-10-01T20:06:08.288Z,12.9
2022-10-01T20:16:08.637Z,12.9
2022-10-01T20:26:09.620Z,12.8
2022-10-01T20:36:10.405Z,12.7
2022-10-01T20:46:10.995Z,12.6
2022-10-01T20:56:11.247Z,12.6
2022-10-01T21:06:11.756Z,12.8
2022-10-01T21:16:12.564Z,12.9
2022-10-01T21:26:12.689Z,12.9
2022-10-01T21:36:13.207Z,13
2022-10-01T21:46:14.003Z,12.8
2022-10-01T22:06:15.407Z,12.8
2022-10-01T22:16:16.483Z,12.8
2022-10-01T22:26:16.964Z,12.7
2022-10-01T22:36:17.679Z,12.8
2022-10-01T22:46:18.050Z,12.8
2022-10-01T22:56:18.211Z,12.8
2022-10-01T23:06:18.328Z,12.6
2022-10-01T23:16:18.711Z,12.6
2022-10-01T23:26:18.983Z,12.7
2022-10-01T23:36:19.703Z,12.6
2022-10-01T23:46:20.551Z,12.6
2022-10-01T23:56:20.646Z,12.8
